Airfield :
LOGIN :

Register | Disclaimer

   EN    FR    IT 

 










Legend :    VFR   Marginal VFR   IFR   Intensive IFR   Very Intensive IFR
Visi :
Ceiling :
>= 8 km
>= 3000ft
5 to 8 km
1000 to 3000 ft
1500m to 5 km
500 to 1000 ft
800 to 1500m
200 to 500 ft
< 800m
< 200 ft
Symbols :   Thunderstorms  Fog  Heavy snow  Heavy precipitations  Wind > 20 kt
SIGMETs :     Misc.  Thunderstorms  Icing  Turbulence  Mountain Waves  Volcanic Ashes






- Airport Elevation : 580 ft


LFOA - Avord

CURRENT METAR :
  • 081730Z AUTO 13003KT CAVOK 22/05 Q1022

EXPIRED METARs :
  • 081700Z AUTO VRB03KT CAVOK 22/04 Q1022 NOSIG
  • 081630Z AUTO 15005KT CAVOK 23/04 Q1022 NOSIG
  • 081600Z AUTO 14004KT 100V190 CAVOK 23/03 Q1022 NOSIG
  • 081530Z AUTO 16004KT CAVOK 23/04 Q1022 NOSIG
  • 081500Z AUTO 16005KT 110V240 CAVOK 23/02 Q1022 NOSIG

TAF TAF LFOA
Valid from the 08 at 15:00 until the 09 at 15:00 UTC


081400Z 0815/0915 14006KT CAVOK
PROB30
TEMPO 0902/0906 3000 BR



MET'MAP, your aeronautical weather chart ! - Copyright ORBIFLY December 2007 - Disclaimer

ORBIFLY MET'MAP TEAM :

Programming & Development : Alexandra Zaïnal
Concept & original design : Baudouin d'Aumeries
Assistance for programming : Marc-Olivier Méhu
Technical & hardware support : Manuel Goepfert

Contact : metmap@orbifly.com




SOURCES & CREDITS :

   NOAA